Time;durP1;ratioP1;P1;durP2;ratioP2;P2;SDS_P1;SDS_P2;PMS_P1;PMS_P2;Temp;Humidity;BMP_temperature;BMP_pressure;BME280_temperature;BME280_humidity;BME280_pressure;Samples;Min_cycle;Max_cycle;Signal;HPM_P1;HPM_P2
2024/03/28 00:01:28;;;;;;;1.23;0.60;;;;;;;;;;5069211;28;20028;-61
2024/03/28 00:03:54;;;;;;;4.25;0.70;;;;;;;;;;5069378;28;20037;-62
2024/03/28 00:06:19;;;;;;;5.03;0.77;;;;;;;;;;5051180;28;20043;-61
2024/03/28 00:08:44;;;;;;;1.88;0.65;;;;;;;;;;5068478;28;20115;-61
2024/03/28 00:11:10;;;;;;;2.85;0.60;;;;;;;;;;5070766;28;20107;-61
2024/03/28 00:13:35;;;;;;;5.35;0.85;;;;;;;;;;5069494;28;20035;-62
2024/03/28 00:16:04;;;;;;;1.77;0.60;;;;;;;;;;5070259;28;20032;-55
2024/03/28 00:18:30;;;;;;;4.50;0.85;;;;;;;;;;5082819;28;20467;-56
2024/03/28 00:21:00;;;;;;;2.88;0.85;;;;;;;;;;5080461;28;20053;-57
2024/03/28 00:23:26;;;;;;;1.92;0.70;;;;;;;;;;5074794;28;20032;-56
2024/03/28 00:25:52;;;;;;;1.95;0.68;;;;;;;;;;5073184;28;20478;-54
2024/03/28 00:28:17;;;;;;;1.77;0.65;;;;;;;;;;5072843;28;20064;-54
2024/03/28 00:30:43;;;;;;;2.30;0.70;;;;;;;;;;5072471;28;20071;-57
2024/03/28 00:33:08;;;;;;;3.47;0.65;;;;;;;;;;5072961;28;20119;-56
2024/03/28 00:35:33;;;;;;;2.95;0.60;;;;;;;;;;5072679;28;20048;-56
2024/03/28 00:37:59;;;;;;;3.05;0.88;;;;;;;;;;5072851;28;20036;-53
2024/03/28 00:40:24;;;;;;;2.35;0.70;;;;;;;;;;5072882;28;20043;-53
2024/03/28 00:42:50;;;;;;;1.55;0.50;;;;;;;;;;5073053;28;20036;-55
2024/03/28 00:45:15;;;;;;;1.77;0.57;;;;;;;;;;5072810;28;20043;-57
2024/03/28 00:47:41;;;;;;;3.03;0.80;;;;;;;;;;5072400;28;20533;-56
2024/03/28 00:50:06;;;;;;;2.75;0.70;;;;;;;;;;5073079;28;20070;-56
2024/03/28 00:52:32;;;;;;;2.50;0.60;;;;;;;;;;5072863;28;20024;-57
2024/03/28 00:54:57;;;;;;;1.35;0.57;;;;;;;;;;5072403;28;20036;-55
2024/03/28 00:57:22;;;;;;;2.15;0.63;;;;;;;;;;5072827;28;20064;-56
2024/03/28 00:59:50;;;;;;;1.55;0.45;;;;;;;;;;5072558;28;20387;-56
2024/03/28 01:02:16;;;;;;;3.38;0.60;;;;;;;;;;5071957;28;20033;-56
2024/03/28 01:04:41;;;;;;;1.75;0.80;;;;;;;;;;5072640;28;20056;-52
2024/03/28 01:07:06;;;;;;;1.92;0.52;;;;;;;;;;5072677;28;20082;-55
2024/03/28 01:09:32;;;;;;;2.83;0.60;;;;;;;;;;5071966;28;20036;-55
2024/03/28 01:11:57;;;;;;;3.50;0.57;;;;;;;;;;5054630;28;20043;-55
2024/03/28 01:14:23;;;;;;;1.30;0.50;;;;;;;;;;5072437;28;20046;-54
2024/03/28 01:16:48;;;;;;;1.27;0.40;;;;;;;;;;5071970;28;20104;-57
2024/03/28 01:19:13;;;;;;;1.13;0.63;;;;;;;;;;5071960;28;20123;-58
2024/03/28 01:21:39;;;;;;;1.48;0.60;;;;;;;;;;5072162;28;20060;-56
2024/03/28 01:24:04;;;;;;;3.35;0.55;;;;;;;;;;5072532;28;20044;-55
2024/03/28 01:26:29;;;;;;;0.65;0.40;;;;;;;;;;5071705;28;20040;-52
2024/03/28 01:28:55;;;;;;;3.90;0.50;;;;;;;;;;5071047;28;20434;-52
2024/03/28 01:31:20;;;;;;;1.10;0.40;;;;;;;;;;5071490;28;20436;-55
2024/03/28 01:33:45;;;;;;;1.30;0.60;;;;;;;;;;5071660;28;20048;-56
2024/03/28 01:36:10;;;;;;;0.90;0.47;;;;;;;;;;5072007;28;20040;-55
2024/03/28 01:38:36;;;;;;;1.70;0.82;;;;;;;;;;5072058;28;20044;-56
2024/03/28 01:41:01;;;;;;;0.98;0.50;;;;;;;;;;5071812;28;20036;-53
2024/03/28 01:43:26;;;;;;;1.00;0.50;;;;;;;;;;5053697;28;20349;-56
2024/03/28 01:45:52;;;;;;;3.47;0.55;;;;;;;;;;5071413;28;20064;-55
2024/03/28 01:48:17;;;;;;;0.93;0.45;;;;;;;;;;5071682;28;20041;-55
2024/03/28 01:50:43;;;;;;;1.38;0.57;;;;;;;;;;5070333;28;20040;-56
2024/03/28 01:53:09;;;;;;;1.15;0.40;;;;;;;;;;5071988;28;20032;-54
2024/03/28 01:55:34;;;;;;;0.70;0.40;;;;;;;;;;5071283;28;20036;-56
2024/03/28 01:58:00;;;;;;;1.00;0.40;;;;;;;;;;5053146;28;20039;-55
2024/03/28 02:00:26;;;;;;;1.02;0.40;;;;;;;;;;5071216;28;20472;-55
2024/03/28 02:02:52;;;;;;;1.98;0.40;;;;;;;;;;5071473;28;20045;-54
2024/03/28 02:05:18;;;;;;;0.65;0.38;;;;;;;;;;5053336;28;20047;-55
2024/03/28 02:07:44;;;;;;;0.32;0.30;;;;;;;;;;5071457;28;20039;-56
2024/03/28 02:10:09;;;;;;;0.30;0.30;;;;;;;;;;5068578;28;20119;-54
2024/03/28 02:12:35;;;;;;;0.95;0.50;;;;;;;;;;5070905;28;20040;-56
2024/03/28 02:15:01;;;;;;;1.30;0.50;;;;;;;;;;5067923;28;20540;-60
2024/03/28 02:17:26;;;;;;;1.02;0.50;;;;;;;;;;5053216;28;20595;-60
2024/03/28 02:19:51;;;;;;;0.20;0.20;;;;;;;;;;5069398;28;20550;-61
2024/03/28 02:22:16;;;;;;;0.77;0.40;;;;;;;;;;5070707;28;20120;-60
2024/03/28 02:24:42;;;;;;;2.20;0.50;;;;;;;;;;5070165;28;20147;-60
2024/03/28 02:27:08;;;;;;;0.85;0.40;;;;;;;;;;5070887;28;20452;-60
2024/03/28 02:29:33;;;;;;;0.68;0.43;;;;;;;;;;5070196;28;20033;-58
2024/03/28 02:31:59;;;;;;;0.63;0.55;;;;;;;;;;5069929;28;20032;-60
2024/03/28 02:34:24;;;;;;;1.15;0.50;;;;;;;;;;5070746;28;20439;-58
2024/03/28 02:36:49;;;;;;;1.38;0.43;;;;;;;;;;5070444;28;20464;-60
2024/03/28 02:39:15;;;;;;;0.32;0.30;;;;;;;;;;5070237;28;20032;-61
2024/03/28 02:41:40;;;;;;;0.40;0.30;;;;;;;;;;5070781;28;20060;-60
2024/03/28 02:44:05;;;;;;;0.57;0.40;;;;;;;;;;5070628;28;20032;-59
2024/03/28 02:46:31;;;;;;;1.02;0.43;;;;;;;;;;5069801;28;20119;-61
2024/03/28 02:48:56;;;;;;;0.63;0.40;;;;;;;;;;5070801;28;20033;-54
2024/03/28 02:51:21;;;;;;;1.50;0.32;;;;;;;;;;5070703;28;20032;-58
2024/03/28 02:53:46;;;;;;;0.82;0.50;;;;;;;;;;5070300;28;20044;-56
2024/03/28 02:56:12;;;;;;;0.30;0.30;;;;;;;;;;5067825;28;20599;-55
2024/03/28 02:58:37;;;;;;;1.13;0.40;;;;;;;;;;5070181;28;20032;-53
2024/03/28 03:01:03;;;;;;;0.30;0.30;;;;;;;;;;5069166;28;20040;-54
2024/03/28 03:03:28;;;;;;;0.47;0.40;;;;;;;;;;5070253;28;20051;-56
2024/03/28 03:05:54;;;;;;;0.45;0.30;;;;;;;;;;5070430;28;20035;-60
2024/03/28 03:08:19;;;;;;;1.10;0.30;;;;;;;;;;5070359;28;20501;-59
2024/03/28 03:10:45;;;;;;;0.85;0.30;;;;;;;;;;5069826;28;20036;-59
2024/03/28 03:13:10;;;;;;;0.47;0.30;;;;;;;;;;5070167;28;20676;-60
2024/03/28 03:15:36;;;;;;;0.70;0.40;;;;;;;;;;5069596;28;20440;-60
2024/03/28 03:18:02;;;;;;;0.70;0.40;;;;;;;;;;5070580;28;20035;-53
2024/03/28 03:20:27;;;;;;;3.38;0.40;;;;;;;;;;5069952;28;20049;-56
2024/03/28 03:23:04;;;;;;;2.45;0.40;;;;;;;;;;5068129;28;20158;-54
2024/03/28 03:25:29;;;;;;;0.52;0.30;;;;;;;;;;5069733;28;20036;-56
2024/03/28 03:36:08;;;;;;;0.40;0.30;;;;;;;;;;5069563;28;20043;-53
2024/03/28 03:38:33;;;;;;;0.30;0.30;;;;;;;;;;5069799;28;20119;-56
2024/03/28 03:41:01;;;;;;;0.55;0.30;;;;;;;;;;5069694;28;20361;-56
2024/03/28 03:43:27;;;;;;;0.30;0.30;;;;;;;;;;5070002;28;20028;-54
2024/03/28 03:45:52;;;;;;;0.68;0.40;;;;;;;;;;5069242;28;20036;-57
2024/03/28 03:48:18;;;;;;;0.73;0.40;;;;;;;;;;5068960;28;20460;-56
2024/03/28 03:50:43;;;;;;;1.05;0.40;;;;;;;;;;5070191;28;20040;-55
2024/03/28 03:53:09;;;;;;;0.82;0.40;;;;;;;;;;5073476;28;20044;-55
2024/03/28 03:55:35;;;;;;;0.85;0.45;;;;;;;;;;5073486;28;20032;-56
2024/03/28 03:58:01;;;;;;;0.30;0.30;;;;;;;;;;5073901;28;20029;-54
2024/03/28 04:00:26;;;;;;;0.82;0.50;;;;;;;;;;5073142;28;20385;-57
2024/03/28 04:02:51;;;;;;;0.45;0.30;;;;;;;;;;5073510;28;20086;-54
2024/03/28 04:05:17;;;;;;;0.38;0.30;;;;;;;;;;5073459;28;20024;-56
2024/03/28 04:07:42;;;;;;;1.38;0.50;;;;;;;;;;5073611;28;20044;-56
2024/03/28 04:10:09;;;;;;;0.30;0.30;;;;;;;;;;5073901;28;20040;-56
2024/03/28 04:12:35;;;;;;;0.65;0.40;;;;;;;;;;5072649;28;20021;-56
2024/03/28 04:15:00;;;;;;;1.63;0.50;;;;;;;;;;5073218;28;20120;-56
2024/03/28 04:17:25;;;;;;;0.20;0.20;;;;;;;;;;5073286;28;20582;-55
2024/03/28 04:19:51;;;;;;;0.30;0.30;;;;;;;;;;5072832;28;20068;-57
2024/03/28 04:22:17;;;;;;;0.50;0.30;;;;;;;;;;5073415;28;20036;-57
2024/03/28 04:24:43;;;;;;;0.30;0.30;;;;;;;;;;5073285;28;20412;-56
2024/03/28 04:27:08;;;;;;;0.32;0.20;;;;;;;;;;5072837;28;20067;-54
2024/03/28 04:29:33;;;;;;;0.47;0.40;;;;;;;;;;5072354;28;20063;-56
2024/03/28 04:31:59;;;;;;;1.17;0.43;;;;;;;;;;5072833;28;20548;-57
2024/03/28 04:34:24;;;;;;;1.08;0.20;;;;;;;;;;5072651;28;20496;-56
2024/03/28 04:36:49;;;;;;;0.57;0.35;;;;;;;;;;5073163;28;20040;-56
2024/03/28 04:39:15;;;;;;;0.60;0.30;;;;;;;;;;5073257;28;20462;-56
2024/03/28 04:41:40;;;;;;;0.80;0.25;;;;;;;;;;5072913;28;20475;-56
2024/03/28 04:44:06;;;;;;;1.50;0.40;;;;;;;;;;5072503;28;20037;-56
2024/03/28 04:46:32;;;;;;;0.30;0.30;;;;;;;;;;5072577;28;20036;-56
2024/03/28 04:48:57;;;;;;;0.52;0.35;;;;;;;;;;5073107;28;20029;-56
2024/03/28 04:51:22;;;;;;;2.75;0.40;;;;;;;;;;5070911;28;20060;-57
2024/03/28 04:53:48;;;;;;;1.17;0.40;;;;;;;;;;5072585;28;20032;-56
2024/03/28 04:56:13;;;;;;;0.40;0.40;;;;;;;;;;5072670;28;20178;-56
2024/03/28 04:58:38;;;;;;;0.60;0.32;;;;;;;;;;5071989;28;20494;-56
2024/03/28 05:01:04;;;;;;;0.40;0.40;;;;;;;;;;5071851;28;20056;-56
2024/03/28 05:03:31;;;;;;;0.57;0.22;;;;;;;;;;5067845;28;20529;-55
2024/03/28 05:05:56;;;;;;;0.65;0.30;;;;;;;;;;5072180;28;20043;-56
2024/03/28 05:08:21;;;;;;;0.60;0.38;;;;;;;;;;5072502;28;20032;-56
2024/03/28 05:10:47;;;;;;;0.88;0.35;;;;;;;;;;5072376;28;20052;-56
2024/03/28 05:13:12;;;;;;;0.20;0.20;;;;;;;;;;5054527;28;20041;-56
2024/03/28 05:15:39;;;;;;;0.50;0.40;;;;;;;;;;5071657;28;20039;-56
2024/03/28 05:18:04;;;;;;;0.20;0.20;;;;;;;;;;5072644;28;20032;-54
2024/03/28 05:20:30;;;;;;;0.20;0.20;;;;;;;;;;5071365;28;20049;-57
2024/03/28 05:22:56;;;;;;;0.20;0.20;;;;;;;;;;5071830;28;20032;-52
2024/03/28 05:25:21;;;;;;;0.45;0.20;;;;;;;;;;5072364;28;20607;-57
2024/03/28 05:27:46;;;;;;;0.20;0.20;;;;;;;;;;5072054;28;20555;-57
2024/03/28 05:30:12;;;;;;;0.30;0.30;;;;;;;;;;5072038;28;20028;-55
2024/03/28 05:32:37;;;;;;;0.20;0.20;;;;;;;;;;5071529;28;20467;-55
2024/03/28 05:35:03;;;;;;;0.85;0.40;;;;;;;;;;5072328;28;20045;-54
2024/03/28 05:37:29;;;;;;;0.30;0.30;;;;;;;;;;5070959;28;20037;-57
2024/03/28 05:39:54;;;;;;;0.25;0.25;;;;;;;;;;5071076;28;20508;-57
2024/03/28 05:42:19;;;;;;;0.30;0.30;;;;;;;;;;5071595;28;20072;-56
2024/03/28 05:44:45;;;;;;;0.90;0.40;;;;;;;;;;5072344;28;20044;-57
2024/03/28 05:47:10;;;;;;;1.45;0.40;;;;;;;;;;5071167;28;20818;-57
2024/03/28 05:49:35;;;;;;;0.57;0.30;;;;;;;;;;5071759;28;20496;-55
2024/03/28 05:52:01;;;;;;;1.05;0.30;;;;;;;;;;5071668;28;20028;-54
2024/03/28 05:54:26;;;;;;;0.70;0.50;;;;;;;;;;5071597;28;20594;-55
2024/03/28 05:56:51;;;;;;;0.93;0.30;;;;;;;;;;5070860;28;20047;-57
2024/03/28 05:59:17;;;;;;;0.30;0.30;;;;;;;;;;5072019;28;20044;-56
2024/03/28 06:01:42;;;;;;;0.75;0.32;;;;;;;;;;5071565;28;20033;-54
2024/03/28 06:04:07;;;;;;;1.17;0.43;;;;;;;;;;5071273;28;20476;-53
2024/03/28 06:06:33;;;;;;;0.68;0.20;;;;;;;;;;5071057;28;20047;-54
2024/03/28 06:08:58;;;;;;;0.20;0.20;;;;;;;;;;5071284;28;20483;-55
2024/03/28 06:11:24;;;;;;;0.70;0.30;;;;;;;;;;5070741;28;20098;-57
2024/03/28 06:13:55;;;;;;;0.35;0.30;;;;;;;;;;5071323;28;20040;-55
2024/03/28 06:16:20;;;;;;;0.38;0.30;;;;;;;;;;5070671;28;20484;-57
2024/03/28 06:18:46;;;;;;;1.08;0.38;;;;;;;;;;5070450;28;20047;-61
2024/03/28 06:21:11;;;;;;;0.20;0.20;;;;;;;;;;5071342;28;20051;-61
2024/03/28 06:23:36;;;;;;;1.00;0.38;;;;;;;;;;5071233;28;20037;-60
2024/03/28 06:26:02;;;;;;;0.32;0.30;;;;;;;;;;5070419;28;20039;-61
2024/03/28 06:28:28;;;;;;;2.72;0.40;;;;;;;;;;5070502;28;20046;-60
2024/03/28 06:30:56;;;;;;;0.25;0.25;;;;;;;;;;5070660;28;20082;-53
2024/03/28 06:33:27;;;;;;;0.30;0.22;;;;;;;;;;5070348;28;20043;-56
2024/03/28 06:35:52;;;;;;;0.45;0.45;;;;;;;;;;5070663;28;20160;-53
2024/03/28 06:38:18;;;;;;;0.20;0.20;;;;;;;;;;5070790;28;20460;-56
2024/03/28 06:40:44;;;;;;;0.30;0.30;;;;;;;;;;5070862;28;20111;-56
2024/03/28 06:43:09;;;;;;;0.75;0.40;;;;;;;;;;5069318;28;20639;-53
2024/03/28 06:45:34;;;;;;;0.25;0.25;;;;;;;;;;5070214;28;20111;-55
2024/03/28 06:48:00;;;;;;;0.22;0.22;;;;;;;;;;5069636;28;20033;-57
2024/03/28 06:50:25;;;;;;;3.88;0.40;;;;;;;;;;5069827;28;20032;-57
2024/03/28 06:52:51;;;;;;;0.20;0.20;;;;;;;;;;5070684;28;20032;-57
2024/03/28 06:55:17;;;;;;;0.47;0.30;;;;;;;;;;5070493;28;20040;-57
2024/03/28 06:57:42;;;;;;;0.35;0.20;;;;;;;;;;5070013;28;20029;-57
2024/03/28 07:00:09;;;;;;;1.33;0.30;;;;;;;;;;5067455;28;20038;-57
2024/03/28 07:02:34;;;;;;;0.20;0.20;;;;;;;;;;5070435;28;20042;-57
2024/03/28 07:05:00;;;;;;;1.98;0.60;;;;;;;;;;5070462;28;20036;-57
2024/03/28 07:07:25;;;;;;;0.28;0.28;;;;;;;;;;5070291;28;20040;-57
2024/03/28 07:09:50;;;;;;;0.30;0.30;;;;;;;;;;5070126;28;20044;-61
2024/03/28 07:12:16;;;;;;;0.55;0.30;;;;;;;;;;5070433;28;20033;-60
2024/03/28 07:14:41;;;;;;;0.68;0.43;;;;;;;;;;5069971;28;20028;-61
2024/03/28 07:17:06;;;;;;;0.38;0.30;;;;;;;;;;5070364;28;20042;-61
2024/03/28 07:19:32;;;;;;;3.03;0.40;;;;;;;;;;5069979;28;20469;-59
2024/03/28 07:21:57;;;;;;;0.22;0.20;;;;;;;;;;5070117;28;20111;-61
2024/03/28 07:24:22;;;;;;;0.25;0.25;;;;;;;;;;5069925;28;20116;-56
2024/03/28 07:26:48;;;;;;;0.32;0.30;;;;;;;;;;5069502;28;20043;-57
2024/03/28 07:29:13;;;;;;;1.48;0.45;;;;;;;;;;5069309;28;20040;-55
2024/03/28 07:31:38;;;;;;;0.70;0.30;;;;;;;;;;5052262;28;20032;-54
2024/03/28 07:34:04;;;;;;;0.60;0.20;;;;;;;;;;5070643;28;20085;-57
2024/03/28 07:36:30;;;;;;;1.40;0.40;;;;;;;;;;5069425;28;20071;-57
2024/03/28 07:38:56;;;;;;;2.70;0.40;;;;;;;;;;5068947;28;20060;-54
2024/03/28 07:41:21;;;;;;;2.80;0.40;;;;;;;;;;5069962;28;20092;-56
2024/03/28 07:43:46;;;;;;;1.05;0.30;;;;;;;;;;5070100;28;20024;-55
2024/03/28 07:46:12;;;;;;;2.33;0.73;;;;;;;;;;5069268;28;20390;-56
2024/03/28 07:48:37;;;;;;;6.97;0.50;;;;;;;;;;5069889;28;20037;-57
2024/03/28 07:51:04;;;;;;;2.05;0.40;;;;;;;;;;5069243;28;20495;-57
2024/03/28 07:53:33;;;;;;;1.20;0.30;;;;;;;;;;5061521;28;20071;-54
2024/03/28 07:56:01;;;;;;;0.95;0.35;;;;;;;;;;5069983;28;20059;-56
2024/03/28 07:58:26;;;;;;;1.38;0.40;;;;;;;;;;5069700;28;20064;-57
2024/03/28 08:00:53;;;;;;;0.85;0.30;;;;;;;;;;5068208;28;20532;-62
2024/03/28 08:03:19;;;;;;;7.95;0.70;;;;;;;;;;5069076;28;20028;-61
2024/03/28 08:05:46;;;;;;;1.75;0.50;;;;;;;;;;5068822;28;20033;-60
2024/03/28 08:08:12;;;;;;;3.20;0.40;;;;;;;;;;5069631;28;20127;-60
2024/03/28 08:10:38;;;;;;;2.90;0.50;;;;;;;;;;5069528;28;20119;-61
2024/03/28 08:13:03;;;;;;;3.10;0.45;;;;;;;;;;5069560;28;20456;-60
2024/03/28 08:15:30;;;;;;;3.55;0.60;;;;;;;;;;5070006;28;20040;-59
2024/03/28 08:17:55;;;;;;;2.40;0.55;;;;;;;;;;5069061;28;20040;-55
2024/03/28 08:20:20;;;;;;;5.93;0.75;;;;;;;;;;5069726;28;20142;-59
2024/03/28 08:22:47;;;;;;;0.77;0.43;;;;;;;;;;5069654;28;20040;-60
2024/03/28 08:25:12;;;;;;;4.78;0.50;;;;;;;;;;5069240;28;20052;-60
2024/03/28 08:27:39;;;;;;;2.17;0.50;;;;;;;;;;5069555;28;20040;-60
2024/03/28 08:30:05;;;;;;;1.88;0.50;;;;;;;;;;5051772;28;20500;-60
2024/03/28 08:32:32;;;;;;;2.22;0.28;;;;;;;;;;5069270;28;20028;-56
2024/03/28 08:34:57;;;;;;;3.40;0.50;;;;;;;;;;5066333;28;20059;-57
2024/03/28 08:37:23;;;;;;;3.20;0.40;;;;;;;;;;5069580;28;20520;-57
2024/03/28 08:39:49;;;;;;;1.35;0.40;;;;;;;;;;5072536;28;20476;-58
2024/03/28 08:42:15;;;;;;;2.20;0.52;;;;;;;;;;5073115;28;20027;-56
2024/03/28 08:44:40;;;;;;;0.90;0.50;;;;;;;;;;5073028;28;20056;-54
2024/03/28 08:47:06;;;;;;;0.90;0.32;;;;;;;;;;5072360;28;20036;-57
2024/03/28 08:49:32;;;;;;;3.35;0.60;;;;;;;;;;5071643;28;20039;-58
2024/03/28 08:51:58;;;;;;;1.85;0.70;;;;;;;;;;5072535;28;20037;-58
2024/03/28 08:54:24;;;;;;;3.58;0.35;;;;;;;;;;5072517;28;20083;-57
2024/03/28 08:56:49;;;;;;;1.80;0.40;;;;;;;;;;5056651;28;20039;-59
2024/03/28 08:59:14;;;;;;;1.83;0.47;;;;;;;;;;5068170;28;20120;-62
2024/03/28 09:01:40;;;;;;;1.58;0.43;;;;;;;;;;5068114;28;20495;-62
2024/03/28 09:04:07;;;;;;;2.28;0.60;;;;;;;;;;5069141;28;20051;-62
2024/03/28 09:06:33;;;;;;;5.28;0.50;;;;;;;;;;5069155;28;20115;-62
2024/03/28 09:08:59;;;;;;;1.40;0.60;;;;;;;;;;5068789;28;20139;-62
2024/03/28 09:11:27;;;;;;;0.95;0.47;;;;;;;;;;5068274;28;20036;-58
2024/03/28 09:13:53;;;;;;;1.60;0.40;;;;;;;;;;5068661;28;20047;-62
2024/03/28 09:16:18;;;;;;;0.57;0.30;;;;;;;;;;5068271;28;20040;-62
2024/03/28 09:18:43;;;;;;;0.80;0.43;;;;;;;;;;5069190;28;20036;-60
2024/03/28 09:21:09;;;;;;;1.42;0.35;;;;;;;;;;5068108;28;20452;-62
2024/03/28 09:23:35;;;;;;;2.22;0.40;;;;;;;;;;5068350;28;20028;-62
2024/03/28 09:26:00;;;;;;;0.68;0.35;;;;;;;;;;5068151;28;20028;-60
2024/03/28 09:28:27;;;;;;;0.93;0.40;;;;;;;;;;5067607;28;20380;-60
2024/03/28 09:30:53;;;;;;;2.13;0.40;;;;;;;;;;5068146;28;20043;-62
2024/03/28 09:33:19;;;;;;;0.50;0.30;;;;;;;;;;5068691;28;20039;-61
2024/03/28 09:35:46;;;;;;;0.55;0.30;;;;;;;;;;5067453;28;20071;-62
2024/03/28 09:38:11;;;;;;;1.42;0.35;;;;;;;;;;5050430;28;20051;-62
2024/03/28 09:40:48;;;;;;;0.90;0.30;;;;;;;;;;5068004;28;20460;-60
2024/03/28 09:43:14;;;;;;;0.22;0.22;;;;;;;;;;5067489;28;20432;-62
2024/03/28 09:45:39;;;;;;;0.50;0.30;;;;;;;;;;5066777;28;20032;-61
2024/03/28 09:48:05;;;;;;;0.38;0.30;;;;;;;;;;5066632;28;20979;-62
2024/03/28 09:50:32;;;;;;;1.15;0.40;;;;;;;;;;5067404;28;20044;-62
2024/03/28 09:52:58;;;;;;;0.45;0.30;;;;;;;;;;5048087;28;20032;-60
2024/03/28 09:55:25;;;;;;;3.03;0.45;;;;;;;;;;5056778;28;20036;-62
2024/03/28 09:57:50;;;;;;;0.43;0.35;;;;;;;;;;5048782;28;20045;-61
2024/03/28 10:00:16;;;;;;;3.13;0.30;;;;;;;;;;5067103;28;20040;-62
2024/03/28 10:02:49;;;;;;;0.60;0.35;;;;;;;;;;5067502;28;20043;-63
2024/03/28 10:05:15;;;;;;;0.88;0.40;;;;;;;;;;5066662;28;20079;-61
2024/03/28 10:07:40;;;;;;;1.52;0.73;;;;;;;;;;5067686;28;20056;-61
2024/03/28 10:10:13;;;;;;;1.52;0.40;;;;;;;;;;5057432;28;20147;-63
2024/03/28 10:12:38;;;;;;;1.35;0.40;;;;;;;;;;5066636;28;20563;-59
2024/03/28 10:15:05;;;;;;;1.30;0.50;;;;;;;;;;5067017;28;20075;-61
2024/03/28 10:17:31;;;;;;;2.22;0.75;;;;;;;;;;5067550;28;20029;-61
2024/03/28 10:20:07;;;;;;;1.33;0.60;;;;;;;;;;5065464;28;20135;-62
2024/03/28 10:22:41;;;;;;;1.67;0.70;;;;;;;;;;5055524;28;20392;-62
2024/03/28 10:25:17;;;;;;;1.23;0.70;;;;;;;;;;5063905;28;20791;-61
2024/03/28 10:27:42;;;;;;;1.75;0.68;;;;;;;;;;5066183;28;20637;-62
2024/03/28 10:30:11;;;;;;;2.15;0.65;;;;;;;;;;5044628;28;20040;-61
2024/03/28 10:32:37;;;;;;;1.70;0.70;;;;;;;;;;5048399;28;20028;-62
2024/03/28 10:35:03;;;;;;;1.98;0.70;;;;;;;;;;5063345;28;20487;-61
2024/03/28 10:37:29;;;;;;;2.30;0.70;;;;;;;;;;5066522;28;20032;-62
2024/03/28 10:39:54;;;;;;;2.92;1.00;;;;;;;;;;5065501;28;20045;-61
2024/03/28 10:42:20;;;;;;;2.75;0.73;;;;;;;;;;5062474;28;20034;-61
2024/03/28 10:44:46;;;;;;;1.52;0.70;;;;;;;;;;5062649;28;20480;-61
2024/03/28 10:47:13;;;;;;;1.38;0.68;;;;;;;;;;5062402;28;20036;-61
2024/03/28 10:49:55;;;;;;;1.80;0.75;;;;;;;;;;5044337;28;20438;-60
2024/03/28 10:52:24;;;;;;;0.70;0.50;;;;;;;;;;5047630;28;20644;-62
2024/03/28 10:54:55;;;;;;;1.02;0.60;;;;;;;;;;5061523;28;20485;-62
2024/03/28 10:57:22;;;;;;;1.42;0.80;;;;;;;;;;5061174;28;20052;-62
2024/03/28 10:59:50;;;;;;;1.23;0.60;;;;;;;;;;5064720;28;20036;-60
2024/03/28 11:02:18;;;;;;;2.25;0.70;;;;;;;;;;5061653;28;20036;-62
2024/03/28 11:04:44;;;;;;;1.33;0.63;;;;;;;;;;5066420;28;20048;-61
2024/03/28 11:07:11;;;;;;;1.58;0.60;;;;;;;;;;5065635;28;20069;-62
2024/03/28 11:09:36;;;;;;;1.92;0.80;;;;;;;;;;5063986;28;20032;-61
2024/03/28 11:12:01;;;;;;;0.95;0.52;;;;;;;;;;5065750;28;20048;-60
2024/03/28 11:14:27;;;;;;;0.75;0.40;;;;;;;;;;5047754;28;20029;-62
2024/03/28 11:17:02;;;;;;;2.15;0.47;;;;;;;;;;5066093;28;20024;-62
2024/03/28 11:19:27;;;;;;;0.90;0.50;;;;;;;;;;5057024;28;20141;-61
2024/03/28 11:21:53;;;;;;;1.20;0.55;;;;;;;;;;5057675;28;20044;-61
2024/03/28 11:24:19;;;;;;;1.70;0.75;;;;;;;;;;5065754;28;20085;-61
2024/03/28 11:26:53;;;;;;;1.15;0.50;;;;;;;;;;5065161;28;20044;-59
2024/03/28 11:29:25;;;;;;;0.95;0.50;;;;;;;;;;5062487;28;20048;-62
2024/03/28 11:31:58;;;;;;;0.60;0.40;;;;;;;;;;5064928;28;20123;-61
2024/03/28 11:34:28;;;;;;;0.68;0.50;;;;;;;;;;5064913;28;20048;-62
2024/03/28 11:36:54;;;;;;;0.57;0.40;;;;;;;;;;5058211;28;20132;-61
2024/03/28 11:39:20;;;;;;;1.02;0.50;;;;;;;;;;5064300;28;20040;-61
2024/03/28 11:41:46;;;;;;;0.65;0.47;;;;;;;;;;5057312;28;20074;-61
2024/03/28 11:44:17;;;;;;;1.83;0.50;;;;;;;;;;5065021;28;20036;-61
2024/03/28 11:46:42;;;;;;;1.25;0.47;;;;;;;;;;5061652;28;20043;-61
2024/03/28 11:49:08;;;;;;;0.70;0.45;;;;;;;;;;5065399;28;20041;-60
2024/03/28 11:51:33;;;;;;;1.00;0.40;;;;;;;;;;5061340;28;20143;-62
2024/03/28 11:54:01;;;;;;;1.02;0.45;;;;;;;;;;5064878;28;20111;-60
2024/03/28 11:56:27;;;;;;;0.75;0.43;;;;;;;;;;5065009;28;20051;-62
2024/03/28 11:58:53;;;;;;;0.70;0.40;;;;;;;;;;5064675;28;20396;-61
2024/03/28 12:01:19;;;;;;;0.47;0.30;;;;;;;;;;5065123;28;20036;-62
2024/03/28 12:03:45;;;;;;;0.40;0.35;;;;;;;;;;5061521;28;20089;-62
2024/03/28 12:06:11;;;;;;;0.45;0.38;;;;;;;;;;5057772;28;20032;-61
2024/03/28 12:08:38;;;;;;;0.55;0.40;;;;;;;;;;5065018;28;20097;-61
2024/03/28 12:11:08;;;;;;;0.90;0.50;;;;;;;;;;5061601;28;20107;-60
2024/03/28 12:13:34;;;;;;;0.70;0.40;;;;;;;;;;5066528;28;20032;-60
2024/03/28 12:16:01;;;;;;;0.60;0.35;;;;;;;;;;5068661;28;20628;-61
2024/03/28 12:18:28;;;;;;;0.80;0.50;;;;;;;;;;5069474;28;20040;-61
2024/03/28 12:21:00;;;;;;;0.95;0.47;;;;;;;;;;5068695;28;20065;-61
2024/03/28 12:23:26;;;;;;;0.57;0.47;;;;;;;;;;5068259;28;20135;-62
2024/03/28 12:25:51;;;;;;;0.98;0.50;;;;;;;;;;5050857;28;20383;-60
2024/03/28 12:28:19;;;;;;;1.80;0.43;;;;;;;;;;5065865;28;20760;-61
2024/03/28 12:30:51;;;;;;;0.88;0.50;;;;;;;;;;5059899;28;20072;-61
2024/03/28 12:33:17;;;;;;;0.85;0.32;;;;;;;;;;5067899;28;20036;-61
2024/03/28 12:35:43;;;;;;;0.50;0.40;;;;;;;;;;5067369;28;20047;-59
2024/03/28 12:38:15;;;;;;;1.02;0.50;;;;;;;;;;5068712;28;20383;-61
2024/03/28 12:40:44;;;;;;;0.50;0.40;;;;;;;;;;5067285;28;20051;-60
2024/03/28 12:43:13;;;;;;;0.80;0.47;;;;;;;;;;5069644;28;20454;-61
2024/03/28 12:45:39;;;;;;;0.77;0.45;;;;;;;;;;5067934;28;20464;-62
2024/03/28 12:48:06;;;;;;;3.25;0.70;;;;;;;;;;5067227;28;20032;-61
2024/03/28 12:50:32;;;;;;;1.90;0.75;;;;;;;;;;5068774;28;20036;-61
2024/03/28 12:52:58;;;;;;;1.70;0.80;;;;;;;;;;5059021;28;20044;-62
2024/03/28 12:55:24;;;;;;;1.45;0.70;;;;;;;;;;5076486;28;20047;-60
2024/03/28 12:57:49;;;;;;;1.77;0.75;;;;;;;;;;5076998;28;20062;-61
2024/03/28 13:00:15;;;;;;;1.77;0.70;;;;;;;;;;5067974;28;20456;-62
2024/03/28 13:02:41;;;;;;;1.90;0.90;;;;;;;;;;5072508;28;20066;-62
2024/03/28 13:05:08;;;;;;;2.80;0.93;;;;;;;;;;5072329;28;20044;-60
2024/03/28 13:07:33;;;;;;;3.72;1.02;;;;;;;;;;5065767;28;20051;-62
2024/03/28 13:09:59;;;;;;;3.63;1.05;;;;;;;;;;5068390;28;20079;-61
2024/03/28 13:12:27;;;;;;;5.15;1.10;;;;;;;;;;5074693;28;20047;-61
2024/03/28 13:14:53;;;;;;;2.70;1.10;;;;;;;;;;5076020;28;20039;-59
2024/03/28 13:17:18;;;;;;;2.75;1.05;;;;;;;;;;5072788;28;20024;-61
2024/03/28 13:19:47;;;;;;;3.38;1.13;;;;;;;;;;5070580;28;20136;-62
2024/03/28 13:22:13;;;;;;;2.88;1.35;;;;;;;;;;5075139;28;20060;-62
2024/03/28 13:24:38;;;;;;;3.20;1.38;;;;;;;;;;5066922;28;20064;-62
2024/03/28 13:27:04;;;;;;;2.90;1.20;;;;;;;;;;5066639;28;20032;-62
2024/03/28 13:29:30;;;;;;;3.75;1.25;;;;;;;;;;5068578;28;20498;-61
2024/03/28 13:31:55;;;;;;;4.22;1.10;;;;;;;;;;5067889;28;20538;-62
2024/03/28 13:34:20;;;;;;;5.15;1.60;;;;;;;;;;5066712;28;20047;-61
2024/03/28 13:36:49;;;;;;;3.53;1.30;;;;;;;;;;5066741;28;20067;-61
2024/03/28 13:39:15;;;;;;;5.47;1.63;;;;;;;;;;5068178;28;20036;-61
2024/03/28 13:41:41;;;;;;;4.82;1.40;;;;;;;;;;5067574;28;20127;-61
2024/03/28 13:44:06;;;;;;;3.53;1.42;;;;;;;;;;5068058;28;20038;-61
2024/03/28 13:46:31;;;;;;;5.38;1.60;;;;;;;;;;5067734;28;20115;-61
2024/03/28 13:48:57;;;;;;;3.42;1.50;;;;;;;;;;5067384;28;20127;-60
2024/03/28 13:51:24;;;;;;;5.85;1.58;;;;;;;;;;5067131;28;20119;-62
2024/03/28 13:53:49;;;;;;;4.85;1.65;;;;;;;;;;5073103;28;20483;-61
2024/03/28 13:56:15;;;;;;;5.05;1.80;;;;;;;;;;5060282;28;20122;-62
2024/03/28 13:58:40;;;;;;;5.28;1.95;;;;;;;;;;5066451;28;20104;-61
2024/03/28 14:01:06;;;;;;;6.10;1.90;;;;;;;;;;5066955;28;20055;-62
2024/03/28 14:03:31;;;;;;;7.57;2.40;;;;;;;;;;5063365;28;20067;-62
2024/03/28 14:06:00;;;;;;;5.72;2.00;;;;;;;;;;5065497;28;20033;-61
2024/03/28 14:08:25;;;;;;;5.25;1.75;;;;;;;;;;5066724;28;20041;-62
2024/03/28 14:10:51;;;;;;;6.72;2.40;;;;;;;;;;5065607;28;20043;-61
2024/03/28 14:13:16;;;;;;;5.00;2.13;;;;;;;;;;5067107;28;20040;-61
2024/03/28 14:15:41;;;;;;;7.43;2.60;;;;;;;;;;5066320;28;20036;-62
2024/03/28 14:18:07;;;;;;;9.27;2.53;;;;;;;;;;5067657;28;20047;-62
2024/03/28 14:20:37;;;;;;;6.28;2.22;;;;;;;;;;5066432;28;20059;-61
2024/03/28 14:23:03;;;;;;;6.63;2.58;;;;;;;;;;5066795;28;20040;-62
2024/03/28 14:25:28;;;;;;;8.73;2.70;;;;;;;;;;5066112;28;20037;-62
2024/03/28 14:27:53;;;;;;;9.52;3.10;;;;;;;;;;5066270;28;20040;-62
2024/03/28 14:30:19;;;;;;;7.85;2.78;;;;;;;;;;5066160;28;20040;-62
2024/03/28 14:32:44;;;;;;;8.13;2.72;;;;;;;;;;5066925;28;20037;-62
2024/03/28 14:35:10;;;;;;;7.68;2.42;;;;;;;;;;5066464;28;20032;-61
2024/03/28 14:37:35;;;;;;;8.60;3.35;;;;;;;;;;5066248;28;20051;-62
2024/03/28 14:40:02;;;;;;;6.88;2.78;;;;;;;;;;5066835;28;20036;-62
2024/03/28 14:42:29;;;;;;;5.95;2.50;;;;;;;;;;5066050;28;20036;-61
2024/03/28 14:44:56;;;;;;;6.60;2.53;;;;;;;;;;5066598;28;20040;-62